»·PEaware :: N757LN L88-KSBP

N757LN :: L88-KSBP

FLIGHT INFORMATION

Flight Status: Arrived
Operator: Privately registered:
United States
More flights under this callsign
Pilot: Dylan K. (22845)
Aircraft: BEECH AIRCRAFT BARON
(BE58)
More flights by this aircraft type
Origin: L88 New Cuyama
United States
Destination: KSBP San Luis Co Regl
United States
More flights between these airports :: More routes between these airports
Route: DIRECT
File this flight plan on PilotEdge
Remarks: Sample flight plan
Altitude:
(Current/Filed)
6,500ft
Speed:
(Current/Filed)
170kts
Departed: 02-Jan-19 03:26 PM
Arrived: 02-Jan-19 03:49 PM
Distance/Time
Traveled:
50nm/0:23
Distance/Time
To Go:
Arrived

Flight Plot

Page will automatically refresh every two minutes.


Map Options




Map Legend


Flown Route
Filed Route
Departure Airport
Arrival Airport
Navaid (VOR, NDB)
Fix

Horizontal Profiles

Position Reports

Time Latitude Longitude Heading Altitude Ground
Speed
02-Jan-19 15:07 34.942864 -119.690279 204 2153ft 0kts
02-Jan-19 15:08 34.942864 -119.690279 204 2153ft 0kts
02-Jan-19 15:09 34.942864 -119.690279 204 2153ft 0kts
02-Jan-19 15:10 34.942864 -119.690279 204 2153ft 0kts
02-Jan-19 15:11 34.942864 -119.690279 204 2153ft 0kts
02-Jan-19 15:12 34.942864 -119.690279 204 2153ft 0kts
02-Jan-19 15:13 34.942864 -119.690279 204 2153ft 0kts
02-Jan-19 15:14 34.942864 -119.690280 204 2153ft 0kts
02-Jan-19 15:15 34.942854 -119.690285 204 2153ft 0kts
02-Jan-19 15:16 34.942827 -119.690299 200 2153ft 0kts
02-Jan-19 15:17 34.942827 -119.690299 200 2153ft 0kts
02-Jan-19 15:18 34.942827 -119.690299 200 2153ft 0kts
02-Jan-19 15:19 34.942827 -119.690299 200 2153ft 0kts
02-Jan-19 15:20 34.942827 -119.690299 200 2153ft 0kts
02-Jan-19 15:21 34.942735 -119.690655 278 2153ft 0kts
02-Jan-19 15:22 34.942094 -119.690778 124 2154ft 16kts
02-Jan-19 15:23 34.938133 -119.681186 116 2191ft 28kts
02-Jan-19 15:24 34.937832 -119.680417 296 2195ft 27kts
02-Jan-19 15:25 34.948895 -119.708538 301 3288ft 97kts
02-Jan-19 15:26 34.958823 -119.741096 282 4537ft 104kts
02-Jan-19 15:27 34.966722 -119.780015 295 5280ft 120kts
02-Jan-19 15:28 34.980266 -119.816546 295 6204ft 117kts
02-Jan-19 15:29 34.993922 -119.855910 293 6286ft 153kts
02-Jan-19 15:30 35.008687 -119.901516 293 6493ft 144kts
02-Jan-19 15:31 35.022019 -119.946113 291 6488ft 138kts
02-Jan-19 15:32 35.034088 -119.990449 290 6489ft 137kts
02-Jan-19 15:33 35.045109 -120.035124 288 6491ft 137kts
02-Jan-19 15:34 35.055077 -120.080056 287 6495ft 137kts
02-Jan-19 15:35 35.064838 -120.128321 286 6504ft 159kts
02-Jan-19 15:36 35.075384 -120.182234 285 6503ft 165kts
02-Jan-19 15:37 35.087293 -120.236610 292 6507ft 165kts
02-Jan-19 15:38 35.103315 -120.289054 292 6506ft 165kts
02-Jan-19 15:39 35.119192 -120.340779 292 5654ft 160kts
02-Jan-19 15:40 35.134843 -120.391161 292 4610ft 158kts
02-Jan-19 15:41 35.149182 -120.436838 292 4035ft 116kts
02-Jan-19 15:42 35.160468 -120.473415 292 4052ft 117kts
02-Jan-19 15:43 35.173063 -120.513009 292 3384ft 127kts
02-Jan-19 15:44 35.186924 -120.553889 301 2162ft 135kts
02-Jan-19 15:45 35.207088 -120.588550 306 1392ft 124kts
02-Jan-19 15:47 35.224092 -120.617741 304 551ft 96kts
02-Jan-19 15:48 35.237904 -120.641971 306 181ft 51kts
02-Jan-19 15:49 35.239860 -120.643980 35 172ft 0kts
02-Jan-19 15:50 35.239860 -120.643980 35 172ft 0kts
02-Jan-19 15:51 35.239860 -120.643980 35 172ft 0kts
02-Jan-19 15:52 35.237972 -120.640036 70 188ft 6kts
02-Jan-19 15:53 35.238473 -120.640070 305 187ft 0kts
02-Jan-19 15:54 35.238473 -120.640070 305 187ft 0kts
02-Jan-19 15:55 35.238473 -120.640070 305 187ft 0kts
02-Jan-19 15:56 35.238473 -120.640070 305 187ft 0kts
02-Jan-19 15:57 35.238473 -120.640070 305 187ft 0kts
02-Jan-19 15:58 35.238473 -120.640070 305 187ft 0kts
02-Jan-19 15:59 35.238473 -120.640070 305 187ft 0kts

Navigation Log

Ident Type
Flight plan parsing failed, navigation log unavailable